createdAt,value
2022-12-13T00:00:19.460Z,16.75
2022-12-13T00:02:46.778Z,15.90
2022-12-13T00:05:14.853Z,16.90
2022-12-13T00:07:42.425Z,18.52
2022-12-13T00:10:09.652Z,17.27
2022-12-13T00:12:36.756Z,18.10
2022-12-13T00:15:04.041Z,17.77
2022-12-13T00:17:32.256Z,18.60
2022-12-13T00:19:59.356Z,17.05
2022-12-13T00:22:26.440Z,16.38
2022-12-13T00:24:56.144Z,16.50
2022-12-13T00:27:23.385Z,15.25
2022-12-13T00:29:50.408Z,15.27
2022-12-13T00:32:17.763Z,16.25
2022-12-13T00:34:44.852Z,16.83
2022-12-13T00:37:11.940Z,15.98
2022-12-13T00:39:39.687Z,18.63
2022-12-13T00:42:06.870Z,15.70
2022-12-13T00:44:33.961Z,16.83
2022-12-13T00:47:01.063Z,16.15
2022-12-13T00:49:28.252Z,18.67
2022-12-13T00:51:55.343Z,16.23
2022-12-13T00:54:22.439Z,16.50
2022-12-13T00:56:51.247Z,16.77
2022-12-13T00:59:18.456Z,16.40
2022-12-13T01:01:45.600Z,17.13
2022-12-13T01:04:13.253Z,15.13
2022-12-13T01:06:42.978Z,16.05
2022-12-13T01:09:15.226Z,14.98
2022-12-13T01:11:42.311Z,15.13
2022-12-13T01:14:09.390Z,17.13
2022-12-13T01:16:36.523Z,16.70
2022-12-13T01:19:03.639Z,15.90
2022-12-13T01:21:30.717Z,15.83
2022-12-13T01:24:02.049Z,16.48
2022-12-13T01:26:29.420Z,15.35
2022-12-13T01:28:56.560Z,15.80
2022-12-13T01:31:23.618Z,16.17
2022-12-13T01:33:50.975Z,15.48
2022-12-13T01:36:19.061Z,15.60
2022-12-13T01:38:46.208Z,14.57
2022-12-13T01:41:18.288Z,14.27
2022-12-13T01:43:46.802Z,14.10
2022-12-13T01:46:14.525Z,15.00
2022-12-13T01:48:45.066Z,14.45
2022-12-13T01:51:13.307Z,16.05
2022-12-13T01:53:41.343Z,16.90
2022-12-13T01:56:10.719Z,16.80
2022-12-13T01:58:40.080Z,17.13
2022-12-13T02:01:07.132Z,16.02
2022-12-13T02:03:34.469Z,16.50
2022-12-13T02:06:03.918Z,15.07
2022-12-13T02:08:31.074Z,15.17
2022-12-13T02:11:03.998Z,14.18
2022-12-13T02:13:31.061Z,17.70
2022-12-13T02:16:22.191Z,17.95
2022-12-13T02:18:57.663Z,16.27
2022-12-13T02:21:28.405Z,15.88
2022-12-13T02:24:08.842Z,16.25
2022-12-13T02:26:43.797Z,15.75
2022-12-13T02:29:30.367Z,15.00
2022-12-13T02:32:01.525Z,14.32
2022-12-13T02:34:48.582Z,15.23
2022-12-13T02:37:18.666Z,15.73
2022-12-13T02:39:49.574Z,16.27
2022-12-13T02:42:21.868Z,15.52
2022-12-13T02:44:53.074Z,15.02
2022-12-13T02:47:23.510Z,14.82
2022-12-13T02:49:52.200Z,14.43
2022-12-13T02:52:22.323Z,13.30
2022-12-13T02:54:49.859Z,13.95
2022-12-13T02:57:33.827Z,14.10
2022-12-13T03:00:03.197Z,15.13
2022-12-13T03:02:37.906Z,14.52
2022-12-13T03:05:30.450Z,15.07
2022-12-13T03:08:01.821Z,14.70
2022-12-13T03:10:33.625Z,13.77
2022-12-13T03:13:23.434Z,14.77
2022-12-13T03:15:56.301Z,16.48
2022-12-13T03:18:24.524Z,15.18
2022-12-13T03:20:53.893Z,15.10
2022-12-13T03:23:21.795Z,15.48
2022-12-13T03:25:50.992Z,15.80
2022-12-13T03:28:18.053Z,15.07
2022-12-13T03:30:45.144Z,14.65
2022-12-13T03:33:12.221Z,14.77
2022-12-13T03:35:44.394Z,15.02
2022-12-13T03:38:13.419Z,14.77
2022-12-13T03:40:50.425Z,14.95
2022-12-13T03:43:22.012Z,14.18
2022-12-13T03:45:49.868Z,14.20
2022-12-13T03:48:22.077Z,14.13
2022-12-13T03:50:50.311Z,13.52
2022-12-13T03:53:22.854Z,14.85
2022-12-13T03:56:00.788Z,14.93
2022-12-13T03:58:36.503Z,14.60
2022-12-13T04:01:05.612Z,14.73
2022-12-13T04:03:32.755Z,16.15
2022-12-13T04:05:59.879Z,15.35
2022-12-13T04:08:27.034Z,13.75
2022-12-13T04:10:54.144Z,14.15
2022-12-13T04:13:36.590Z,14.23
2022-12-13T04:16:04.075Z,14.93
2022-12-13T04:18:31.193Z,14.50
2022-12-13T04:20:58.333Z,14.07
2022-12-13T04:23:25.444Z,14.05
2022-12-13T04:25:54.788Z,14.47
2022-12-13T04:28:22.935Z,13.15
2022-12-13T04:30:52.911Z,15.33
2022-12-13T04:33:21.181Z,17.90
2022-12-13T04:35:48.631Z,19.13
2022-12-13T04:38:15.971Z,19.10
2022-12-13T04:40:43.084Z,18.20
2022-12-13T04:43:10.147Z,18.92
2022-12-13T04:45:37.204Z,16.33
2022-12-13T04:48:04.463Z,15.25
2022-12-13T04:50:31.541Z,14.70
2022-12-13T04:52:58.665Z,15.88
2022-12-13T04:55:25.747Z,14.95
2022-12-13T04:57:52.795Z,14.40
2022-12-13T05:00:22.348Z,14.95
2022-12-13T05:02:49.813Z,16.60
2022-12-13T05:05:17.567Z,17.25
2022-12-13T05:07:44.844Z,18.20
2022-12-13T05:10:12.902Z,17.00
2022-12-13T05:13:02.776Z,16.08
2022-12-13T05:15:30.267Z,14.68
2022-12-13T05:18:01.876Z,15.90
2022-12-13T05:20:38.147Z,15.07
2022-12-13T05:23:05.167Z,13.98
2022-12-13T05:25:34.087Z,13.70
2022-12-13T05:28:01.146Z,13.85
2022-12-13T05:30:48.207Z,13.35
2022-12-13T05:33:15.283Z,13.95
2022-12-13T05:35:42.484Z,15.30
2022-12-13T05:38:09.532Z,15.23
2022-12-13T05:40:36.075Z,14.38
2022-12-13T05:43:03.152Z,14.95
2022-12-13T05:45:30.734Z,14.52
2022-12-13T05:47:57.779Z,15.73
2022-12-13T05:50:24.929Z,15.13
2022-12-13T05:52:52.430Z,15.15
2022-12-13T05:55:19.898Z,14.75
2022-12-13T05:57:50.936Z,17.77
2022-12-13T06:00:29.127Z,17.38
2022-12-13T06:03:01.504Z,16.40
2022-12-13T06:05:29.563Z,15.82
2022-12-13T06:07:57.720Z,16.30
2022-12-13T06:10:25.162Z,15.50
2022-12-13T06:13:20.979Z,15.80
2022-12-13T06:15:48.035Z,15.30
2022-12-13T06:18:15.435Z,16.60
2022-12-13T06:20:42.489Z,17.15
2022-12-13T06:23:09.594Z,19.50
2022-12-13T06:25:37.340Z,15.60
2022-12-13T06:28:04.583Z,13.80
2022-12-13T06:30:31.866Z,18.60
2022-12-13T06:32:59.087Z,17.27
2022-12-13T06:35:29.991Z,16.60
2022-12-13T06:38:01.217Z,16.07
2022-12-13T06:40:30.383Z,15.50
2022-12-13T06:42:57.710Z,14.18
2022-12-13T06:45:24.776Z,14.70
2022-12-13T06:47:51.803Z,15.87
2022-12-13T06:50:18.973Z,17.00
2022-12-13T06:52:47.657Z,17.80
2022-12-13T06:55:14.942Z,17.23
2022-12-13T06:57:50.805Z,20.25
2022-12-13T07:00:21.876Z,22.17
2022-12-13T07:02:54.782Z,19.35
2022-12-13T07:05:22.347Z,19.02
2022-12-13T07:07:49.541Z,19.98
2022-12-13T07:10:22.068Z,19.23
2022-12-13T07:12:49.871Z,19.23
2022-12-13T07:15:17.118Z,18.40
2022-12-13T07:17:44.168Z,18.10
2022-12-13T07:20:13.473Z,18.35
2022-12-13T07:22:47.259Z,21.73
2022-12-13T07:25:27.636Z,18.73
2022-12-13T07:28:02.008Z,18.20
2022-12-13T07:30:30.243Z,18.27
2022-12-13T07:32:57.340Z,18.30
2022-12-13T07:35:24.566Z,17.38
2022-12-13T07:37:51.681Z,16.52
2022-12-13T07:40:18.917Z,15.90
2022-12-13T07:42:53.846Z,21.13
2022-12-13T07:45:21.074Z,19.10
2022-12-13T07:47:48.268Z,18.40
2022-12-13T07:50:24.872Z,17.65
2022-12-13T07:52:53.516Z,17.17
2022-12-13T07:55:22.939Z,16.65
2022-12-13T07:58:04.175Z,17.98
2022-12-13T08:00:31.498Z,22.35
2022-12-13T08:03:01.281Z,21.42
2022-12-13T08:05:29.148Z,18.90
2022-12-13T08:08:07.144Z,19.95
2022-12-13T08:10:34.335Z,23.25
2022-12-13T08:13:04.344Z,24.90
2022-12-13T08:15:31.829Z,24.60
2022-12-13T08:18:00.921Z,20.80
2022-12-13T08:20:28.081Z,20.38
2022-12-13T08:23:02.068Z,20.65
2022-12-13T08:25:30.121Z,21.25
2022-12-13T08:28:01.659Z,19.67
2022-12-13T08:30:29.953Z,17.92
2022-12-13T08:32:57.567Z,18.48
2022-12-13T08:35:33.486Z,19.08
2022-12-13T08:38:01.354Z,18.77
2022-12-13T08:40:28.564Z,19.58
2022-12-13T08:42:55.946Z,19.30
2022-12-13T08:45:24.304Z,20.52
2022-12-13T08:47:51.329Z,20.35
2022-12-13T08:50:18.089Z,20.60
2022-12-13T08:52:45.222Z,20.58
2022-12-13T08:55:13.576Z,19.48
2022-12-13T08:57:41.061Z,19.92
2022-12-13T09:00:09.305Z,19.85
2022-12-13T09:02:37.946Z,20.77
2022-12-13T09:05:05.912Z,21.05
2022-12-13T09:07:33.043Z,19.80
2022-12-13T09:10:00.100Z,20.15
2022-12-13T09:12:47.138Z,19.92
2022-12-13T09:15:22.200Z,17.77
2022-12-13T09:17:52.111Z,17.77
2022-12-13T09:20:29.734Z,18.50
2022-12-13T09:23:01.630Z,17.50
2022-12-13T09:25:37.465Z,17.98
2022-12-13T09:28:06.818Z,16.65
2022-12-13T09:30:33.924Z,16.48
2022-12-13T09:33:28.325Z,15.35
2022-12-13T09:35:48.105Z,16.25
2022-12-13T09:38:15.711Z,16.58
2022-12-13T09:40:44.568Z,15.82
2022-12-13T09:43:22.066Z,15.35
2022-12-13T09:45:52.421Z,15.52
2022-12-13T09:48:34.565Z,15.65
2022-12-13T09:51:18.321Z,15.52
2022-12-13T09:53:50.827Z,15.57
2022-12-13T09:56:19.244Z,15.63
2022-12-13T09:58:49.294Z,16.00
2022-12-13T10:01:22.416Z,16.60
2022-12-13T10:03:51.805Z,15.57
2022-12-13T10:06:23.247Z,14.65
2022-12-13T10:08:59.296Z,16.60
2022-12-13T10:11:32.354Z,17.15
2022-12-13T10:14:05.323Z,15.52
2022-12-13T10:16:43.683Z,15.50
2022-12-13T10:19:28.810Z,15.13
2022-12-13T10:22:01.732Z,15.57
2022-12-13T10:24:36.875Z,15.40
2022-12-13T10:27:21.480Z,15.05
2022-12-13T10:30:08.484Z,14.38
2022-12-13T10:32:43.679Z,15.43
2022-12-13T10:35:30.825Z,14.50
2022-12-13T10:37:59.832Z,15.70
2022-12-13T10:40:32.296Z,15.02
2022-12-13T10:43:07.703Z,14.60
2022-12-13T10:45:35.064Z,12.77
2022-12-13T10:48:04.364Z,12.95
2022-12-13T10:50:32.561Z,13.18
2022-12-13T10:53:00.600Z,13.10
2022-12-13T10:55:35.922Z,12.93
2022-12-13T10:58:07.023Z,14.05
2022-12-13T11:00:37.949Z,12.98
2022-12-13T11:03:05.467Z,12.38
2022-12-13T11:05:34.967Z,13.55
2022-12-13T11:08:17.634Z,12.80
2022-12-13T11:10:44.722Z,13.10
2022-12-13T11:13:23.229Z,12.70
2022-12-13T11:15:55.946Z,12.68
2022-12-13T11:18:24.797Z,11.93
2022-12-13T11:21:07.765Z,12.15
2022-12-13T11:23:37.785Z,13.63
2022-12-13T11:26:09.248Z,12.37
2022-12-13T11:28:36.346Z,12.65
2022-12-13T11:31:10.398Z,11.77
2022-12-13T11:33:54.866Z,11.80
2022-12-13T11:36:36.584Z,12.45
2022-12-13T11:39:03.630Z,12.02
2022-12-13T11:41:33.260Z,12.43
2022-12-13T11:44:20.343Z,11.77
2022-12-13T11:46:50.374Z,11.40
2022-12-13T11:49:18.918Z,12.30
2022-12-13T11:51:56.640Z,11.93
2022-12-13T11:54:27.491Z,11.90
2022-12-13T11:57:00.756Z,11.57
2022-12-13T11:59:28.360Z,11.67
2022-12-13T12:01:56.645Z,11.32
2022-12-13T12:04:36.373Z,11.70
2022-12-13T12:07:36.455Z,11.45
2022-12-13T12:10:04.517Z,11.40
2022-12-13T12:12:32.618Z,11.85
2022-12-13T12:15:15.843Z,11.50
2022-12-13T12:17:43.615Z,11.68
2022-12-13T12:20:13.861Z,11.40
2022-12-13T12:22:59.846Z,11.35
2022-12-13T12:25:42.602Z,11.57
2022-12-13T12:28:25.684Z,11.13
2022-12-13T12:31:12.939Z,11.05
2022-12-13T12:33:55.866Z,11.30
2022-12-13T12:36:29.826Z,11.40
2022-12-13T12:38:58.585Z,10.88
2022-12-13T12:41:45.805Z,10.80
2022-12-13T12:44:33.908Z,10.83
2022-12-13T12:47:49.100Z,11.05
2022-12-13T12:50:15.757Z,10.82
2022-12-13T12:52:46.415Z,10.13
2022-12-13T12:55:20.406Z,10.75
2022-12-13T12:58:01.542Z,10.02
2022-12-13T13:00:30.126Z,11.05
2022-12-13T13:03:01.825Z,10.60
2022-12-13T13:05:40.090Z,10.50
2022-12-13T13:08:12.661Z,9.90
2022-12-13T13:10:41.373Z,10.45
2022-12-13T13:13:46.033Z,10.33
2022-12-13T13:16:32.415Z,9.55
2022-12-13T13:19:01.719Z,9.48
2022-12-13T13:21:32.835Z,9.13
2022-12-13T13:24:03.155Z,10.10
2022-12-13T13:26:36.346Z,9.32
2022-12-13T13:29:27.678Z,9.65
2022-12-13T13:32:11.157Z,10.57
2022-12-13T13:34:40.994Z,9.15
2022-12-13T13:37:27.993Z,8.82
2022-12-13T13:40:30.588Z,9.50
2022-12-13T13:43:06.281Z,9.35
2022-12-13T13:45:53.922Z,9.15
2022-12-13T13:48:20.982Z,8.80
2022-12-13T13:50:51.293Z,8.75
2022-12-13T13:53:20.357Z,10.30
2022-12-13T13:56:02.189Z,10.02
2022-12-13T13:58:32.733Z,10.48
2022-12-13T14:00:59.829Z,10.85
2022-12-13T14:03:42.891Z,9.60
2022-12-13T14:06:30.458Z,8.73
2022-12-13T14:09:17.449Z,8.43
2022-12-13T14:11:47.741Z,8.98
2022-12-13T14:14:38.581Z,9.00
2022-12-13T14:17:07.024Z,9.40
2022-12-13T14:19:37.956Z,8.05
2022-12-13T14:22:05.126Z,9.90
2022-12-13T14:24:52.132Z,9.85
2022-12-13T14:27:22.435Z,9.27
2022-12-13T14:29:58.077Z,9.15
2022-12-13T14:32:27.776Z,9.13
2022-12-13T14:38:24.534Z,8.63
2022-12-13T14:40:54.368Z,8.15
2022-12-13T14:43:28.483Z,7.85
2022-12-13T14:45:58.036Z,8.50
2022-12-13T14:48:28.644Z,7.85
2022-12-13T14:50:56.874Z,7.85
2022-12-13T14:53:26.531Z,7.17
2022-12-13T14:56:09.877Z,7.63
2022-12-13T14:58:38.006Z,7.20
2022-12-13T15:01:06.091Z,7.50
2022-12-13T15:03:35.025Z,8.35
2022-12-13T15:06:04.420Z,8.07
2022-12-13T15:08:32.890Z,8.07
2022-12-13T15:11:03.065Z,8.47
2022-12-13T15:13:52.542Z,8.65
2022-12-13T15:16:23.867Z,9.00
2022-12-13T15:19:05.244Z,7.90
2022-12-13T15:21:38.066Z,9.15
2022-12-13T15:24:05.832Z,8.75
2022-12-13T15:26:33.744Z,9.37
2022-12-13T15:29:10.201Z,9.47
2022-12-13T15:31:38.475Z,9.02
2022-12-13T15:34:28.241Z,8.27
2022-12-13T15:36:58.159Z,8.73
2022-12-13T15:39:25.716Z,8.88
2022-12-13T15:41:55.423Z,8.25
2022-12-13T15:44:26.365Z,8.82
2022-12-13T15:46:59.121Z,9.10
2022-12-13T15:49:31.582Z,7.50
2022-12-13T15:52:00.871Z,7.97
2022-12-13T15:54:28.695Z,7.70
2022-12-13T15:57:13.311Z,8.45
2022-12-13T15:59:41.019Z,8.23
2022-12-13T16:02:24.380Z,8.48
2022-12-13T16:04:52.079Z,8.30
2022-12-13T16:07:28.983Z,10.23
2022-12-13T16:09:58.228Z,8.63
2022-12-13T16:12:26.844Z,8.35
2022-12-13T16:14:53.978Z,10.45
2022-12-13T16:17:36.183Z,13.80
2022-12-13T16:20:12.786Z,12.85
2022-12-13T16:22:39.934Z,12.57
2022-12-13T16:25:07.175Z,13.45
2022-12-13T16:27:34.259Z,13.50
2022-12-13T16:30:01.372Z,11.02
2022-12-13T16:32:28.437Z,13.23
2022-12-13T16:34:55.623Z,14.00
2022-12-13T16:37:27.456Z,14.40
2022-12-13T16:39:54.910Z,14.38
2022-12-13T16:42:26.083Z,12.30
2022-12-13T16:45:17.825Z,11.88
2022-12-13T16:47:48.395Z,11.65
2022-12-13T16:50:17.911Z,13.15
2022-12-13T16:52:45.099Z,13.38
2022-12-13T16:55:12.446Z,13.50
2022-12-13T16:57:39.958Z,15.13
2022-12-13T17:00:09.962Z,11.47
2022-12-13T17:02:38.209Z,10.75
2022-12-13T17:05:05.815Z,9.88
2022-12-13T17:07:32.603Z,10.50
2022-12-13T17:10:00.297Z,9.88
2022-12-13T17:12:27.478Z,10.77
2022-12-13T17:14:54.980Z,11.07
2022-12-13T17:17:22.149Z,12.85
2022-12-13T17:19:49.244Z,14.55
2022-12-13T17:22:16.351Z,16.10
2022-12-13T17:24:43.507Z,15.83
2022-12-13T17:27:10.547Z,15.82
2022-12-13T17:29:38.782Z,14.00
2022-12-13T17:32:06.693Z,13.77
2022-12-13T17:34:33.865Z,14.13
2022-12-13T17:37:05.648Z,12.63
2022-12-13T17:39:35.736Z,10.40
2022-12-13T17:42:02.874Z,10.48
2022-12-13T17:44:29.931Z,9.43
2022-12-13T17:46:57.038Z,9.25
2022-12-13T17:49:25.074Z,9.02
2022-12-13T17:51:53.901Z,9.43
2022-12-13T17:54:21.910Z,8.77
2022-12-13T17:56:48.914Z,9.07
2022-12-13T17:59:17.334Z,9.45
2022-12-13T18:01:44.699Z,9.67
2022-12-13T18:04:12.578Z,10.70
2022-12-13T18:06:40.191Z,10.18
2022-12-13T18:09:08.317Z,10.55
2022-12-13T18:11:35.774Z,11.40
2022-12-13T18:14:04.625Z,15.52
2022-12-13T18:16:37.598Z,35.70
2022-12-13T18:19:06.641Z,40.13
2022-12-13T18:21:34.638Z,28.30
2022-12-13T18:24:01.378Z,18.23
2022-12-13T18:26:28.414Z,23.70
2022-12-13T18:28:55.564Z,21.83
2022-12-13T18:31:24.003Z,15.98
2022-12-13T18:33:52.334Z,13.38
2022-12-13T18:36:20.069Z,12.87
2022-12-13T18:38:47.761Z,14.07
2022-12-13T18:41:17.863Z,13.35
2022-12-13T18:43:45.358Z,12.85
2022-12-13T18:46:13.353Z,20.08
2022-12-13T18:48:41.062Z,24.40
2022-12-13T18:51:08.977Z,24.23
2022-12-13T18:53:37.193Z,27.43
2022-12-13T18:56:05.830Z,18.45
2022-12-13T18:58:33.523Z,15.03
2022-12-13T19:01:00.654Z,15.82
2022-12-13T19:03:28.244Z,17.83
2022-12-13T19:05:57.229Z,18.43
2022-12-13T19:08:26.235Z,18.05
2022-12-13T19:10:54.115Z,13.80
2022-12-13T19:13:23.019Z,13.85
2022-12-13T19:15:50.993Z,13.30
2022-12-13T19:18:18.181Z,13.05
2022-12-13T19:20:46.961Z,12.65
2022-12-13T19:23:14.103Z,12.85
2022-12-13T19:25:41.322Z,16.23
2022-12-13T19:28:08.716Z,19.25
2022-12-13T19:30:35.901Z,26.83
2022-12-13T19:33:03.010Z,26.92
2022-12-13T19:35:30.218Z,24.80
2022-12-13T19:37:57.326Z,23.00
2022-12-13T19:40:24.429Z,20.67
2022-12-13T19:42:51.576Z,20.33
2022-12-13T19:45:18.810Z,21.25
2022-12-13T19:47:48.694Z,19.20
2022-12-13T19:50:16.181Z,15.93
2022-12-13T19:52:43.268Z,16.02
2022-12-13T19:55:10.820Z,16.05
2022-12-13T19:57:37.861Z,15.55
2022-12-13T20:00:05.802Z,15.30
2022-12-13T20:02:32.954Z,16.80
2022-12-13T20:05:00.140Z,17.55
2022-12-13T20:07:27.224Z,17.88
2022-12-13T20:09:54.406Z,18.67
2022-12-13T20:12:21.476Z,17.90
2022-12-13T20:14:48.591Z,17.02
2022-12-13T20:17:15.821Z,18.35
2022-12-13T20:19:45.949Z,17.58
2022-12-13T20:22:13.100Z,19.40
2022-12-13T20:24:40.199Z,19.87
2022-12-13T20:27:07.379Z,18.00
2022-12-13T20:29:34.531Z,15.98
2022-12-13T20:32:01.651Z,15.43
2022-12-13T20:34:28.904Z,15.20
2022-12-13T20:36:56.068Z,14.90
2022-12-13T20:39:23.224Z,15.68
2022-12-13T20:41:50.299Z,15.30
2022-12-13T20:44:17.523Z,14.50
2022-12-13T20:46:44.589Z,14.73
2022-12-13T20:49:11.824Z,21.60
2022-12-13T20:51:41.181Z,20.00
2022-12-13T20:54:08.321Z,17.67
2022-12-13T20:56:37.021Z,15.50
2022-12-13T20:59:06.369Z,14.30
2022-12-13T21:01:35.039Z,13.87
2022-12-13T21:04:04.865Z,13.70
2022-12-13T21:06:32.853Z,14.00
2022-12-13T21:09:02.638Z,13.23
2022-12-13T21:11:30.231Z,13.80
2022-12-13T21:14:21.759Z,12.77
2022-12-13T21:16:51.605Z,14.45
2022-12-13T21:19:22.840Z,13.98
2022-12-13T21:21:50.332Z,14.05
2022-12-13T21:24:18.434Z,14.23
2022-12-13T21:26:45.817Z,14.70
2022-12-13T21:29:14.090Z,15.43
2022-12-13T21:31:42.998Z,14.32
2022-12-13T21:34:10.642Z,13.65
2022-12-13T21:36:39.113Z,14.00
2022-12-13T21:39:08.209Z,13.20
2022-12-13T21:41:35.312Z,12.50
2022-12-13T21:44:02.465Z,12.50
2022-12-13T21:46:47.954Z,11.15
2022-12-13T21:49:17.276Z,12.23
2022-12-13T21:51:47.828Z,11.63
2022-12-13T21:54:15.400Z,11.05
2022-12-13T21:57:02.410Z,11.27
2022-12-13T21:59:29.777Z,11.57
2022-12-13T22:02:14.543Z,11.43
2022-12-13T22:04:43.555Z,10.38
2022-12-13T22:07:11.867Z,11.07
2022-12-13T22:09:38.966Z,10.37
2022-12-13T22:12:10.026Z,11.23
2022-12-13T22:14:37.420Z,10.85
2022-12-13T22:17:04.544Z,12.50
2022-12-13T22:19:31.684Z,13.30
2022-12-13T22:21:58.400Z,12.67
2022-12-13T22:24:25.396Z,13.90
2022-12-13T22:26:52.518Z,13.95
2022-12-13T22:29:19.554Z,13.13
2022-12-13T22:31:48.878Z,13.05
2022-12-13T22:34:16.459Z,13.20
2022-12-13T22:36:43.686Z,14.13
2022-12-13T22:39:16.037Z,12.88
2022-12-13T22:41:42.857Z,11.80
2022-12-13T22:44:12.183Z,12.88
2022-12-13T22:46:39.511Z,13.37
2022-12-13T22:49:06.727Z,12.85
2022-12-13T22:51:33.845Z,12.77
2022-12-13T22:54:01.158Z,13.85
2022-12-13T22:56:28.464Z,12.32
2022-12-13T22:58:56.486Z,11.55
2022-12-13T23:01:25.141Z,12.40
2022-12-13T23:03:52.162Z,11.90
2022-12-13T23:06:21.478Z,12.07
2022-12-13T23:08:56.602Z,12.73
2022-12-13T23:11:44.277Z,11.90
2022-12-13T23:14:13.404Z,12.70
2022-12-13T23:16:40.908Z,12.38
2022-12-13T23:19:40.552Z,12.02
2022-12-13T23:21:59.778Z,12.00
2022-12-13T23:24:27.228Z,12.75
2022-12-13T23:26:53.947Z,11.50
2022-12-13T23:29:21.087Z,11.77
2022-12-13T23:31:48.704Z,11.63
2022-12-13T23:34:16.025Z,11.73
2022-12-13T23:36:42.892Z,10.95
2022-12-13T23:39:11.157Z,12.32
2022-12-13T23:41:38.173Z,13.18
2022-12-13T23:44:05.429Z,12.93
2022-12-13T23:46:34.775Z,11.77
2022-12-13T23:49:02.658Z,11.27
2022-12-13T23:51:29.728Z,11.25
2022-12-13T23:53:57.188Z,10.23
2022-12-13T23:56:24.657Z,9.63
2022-12-13T23:58:51.809Z,9.50
